sensor_id;sensor_type;location;lat;lon;timestamp;pressure;altitude;pressure_sealevel;temperature;humidity
61742;BME280;47650;49.848;9.620;2023-04-09T00:01:58;100392.06;;;7.89;63.33
61742;BME280;47650;49.848;9.620;2023-04-09T00:04:25;100349.25;;;7.60;63.06
61742;BME280;47650;49.848;9.620;2023-04-09T00:06:51;100434.16;;;8.17;63.02
61742;BME280;47650;49.848;9.620;2023-04-09T00:09:21;100424.13;;;8.09;62.97
61742;BME280;47650;49.848;9.620;2023-04-09T00:11:47;100466.75;;;8.28;62.97
61742;BME280;47650;49.848;9.620;2023-04-09T00:14:20;100392.78;;;7.91;62.59
61742;BME280;47650;49.848;9.620;2023-04-09T00:16:45;100437.06;;;8.25;63.02
61742;BME280;47650;49.848;9.620;2023-04-09T00:19:11;100346.16;;;7.66;62.46
61742;BME280;47650;49.848;9.620;2023-04-09T00:21:36;100454.16;;;8.32;62.87
61742;BME280;47650;49.848;9.620;2023-04-09T00:24:02;100313.59;;;7.55;62.94
61742;BME280;47650;49.848;9.620;2023-04-09T00:26:28;100452.28;;;8.34;63.35
61742;BME280;47650;49.848;9.620;2023-04-09T00:28:55;100416.63;;;8.16;62.99
61742;BME280;47650;49.848;9.620;2023-04-09T00:31:20;100366.31;;;7.80;63.03
61742;BME280;47650;49.848;9.620;2023-04-09T00:33:45;100446.91;;;8.36;62.88
61742;BME280;47650;49.848;9.620;2023-04-09T00:36:14;100451.31;;;8.35;62.59
61742;BME280;47650;49.848;9.620;2023-04-09T00:38:41;100444.13;;;8.37;62.62
61742;BME280;47650;49.848;9.620;2023-04-09T00:41:07;100417.13;;;8.21;62.71
61742;BME280;47650;49.848;9.620;2023-04-09T00:43:33;100439.59;;;8.39;62.80
61742;BME280;47650;49.848;9.620;2023-04-09T00:45:59;100443.91;;;8.40;62.28
61742;BME280;47650;49.848;9.620;2023-04-09T00:48:25;100375.44;;;8.00;62.54
61742;BME280;47650;49.848;9.620;2023-04-09T00:50:51;100364.38;;;7.95;62.50
61742;BME280;47650;49.848;9.620;2023-04-09T00:53:17;100394.75;;;8.14;62.71
61742;BME280;47650;49.848;9.620;2023-04-09T00:55:45;100431.22;;;8.45;62.80
61742;BME280;47650;49.848;9.620;2023-04-09T00:58:14;100375.97;;;8.05;62.44
61742;BME280;47650;49.848;9.620;2023-04-09T01:00:41;100433.16;;;8.43;62.53
61742;BME280;47650;49.848;9.620;2023-04-09T01:03:07;100433.16;;;8.43;62.75
61742;BME280;47650;49.848;9.620;2023-04-09T01:05:39;100439.59;;;8.39;62.96
61742;BME280;47650;49.848;9.620;2023-04-09T01:11:31;100437.59;;;8.43;63.21
61742;BME280;47650;49.848;9.620;2023-04-09T01:14:20;100437.50;;;8.44;63.21
61742;BME280;47650;49.848;9.620;2023-04-09T01:16:52;100419.59;;;8.35;63.07
61742;BME280;47650;49.848;9.620;2023-04-09T01:22:19;100449.00;;;8.43;63.04
61742;BME280;47650;49.848;9.620;2023-04-09T01:25:02;100401.31;;;8.32;62.92
61742;BME280;47650;49.848;9.620;2023-04-09T01:27:45;100409.91;;;8.36;62.95
61742;BME280;47650;49.848;9.620;2023-04-09T01:30:19;100424.91;;;8.48;62.86
61742;BME280;47650;49.848;9.620;2023-04-09T01:32:46;100421.28;;;8.49;63.04
61742;BME280;47650;49.848;9.620;2023-04-09T01:37:43;100430.59;;;8.55;62.98
61742;BME280;47650;49.848;9.620;2023-04-09T01:40:10;100429.28;;;8.60;63.16
61742;BME280;47650;49.848;9.620;2023-04-09T01:42:37;100396.34;;;8.40;63.05
61742;BME280;47650;49.848;9.620;2023-04-09T01:45:05;100438.16;;;8.59;62.98
61742;BME280;47650;49.848;9.620;2023-04-09T01:47:34;100429.28;;;8.60;63.12
61742;BME280;47650;49.848;9.620;2023-04-09T01:50:01;100432.88;;;8.59;62.83
61742;BME280;47650;49.848;9.620;2023-04-09T01:52:27;100426.03;;;8.57;62.84
61742;BME280;47650;49.848;9.620;2023-04-09T01:54:54;100352.50;;;8.14;62.61
61742;BME280;47650;49.848;9.620;2023-04-09T01:57:20;100437.09;;;8.62;62.64
61742;BME280;47650;49.848;9.620;2023-04-09T01:59:46;100366.84;;;8.09;62.41
61742;BME280;47650;49.848;9.620;2023-04-09T02:02:17;100439.75;;;8.62;62.62
61742;BME280;47650;49.848;9.620;2023-04-09T02:04:47;100392.34;;;8.35;62.61
61742;BME280;47650;49.848;9.620;2023-04-09T02:07:33;100433.47;;;8.63;62.86
61742;BME280;47650;49.848;9.620;2023-04-09T02:10:03;100341.78;;;7.91;62.44
61742;BME280;47650;49.848;9.620;2023-04-09T02:12:35;100439.44;;;8.54;63.04
61742;BME280;47650;49.848;9.620;2023-04-09T02:15:06;100444.75;;;8.54;62.92
61742;BME280;47650;49.848;9.620;2023-04-09T02:17:31;100450.88;;;8.54;63.32
61742;BME280;47650;49.848;9.620;2023-04-09T02:19:57;100351.69;;;8.00;63.33
61742;BME280;47650;49.848;9.620;2023-04-09T02:22:22;100432.72;;;8.50;63.65
61742;BME280;47650;49.848;9.620;2023-04-09T02:24:47;100379.22;;;8.09;63.46
61742;BME280;47650;49.848;9.620;2023-04-09T02:27:13;100430.41;;;8.45;63.61
61742;BME280;47650;49.848;9.620;2023-04-09T02:29:45;100383.56;;;8.10;63.46
61742;BME280;47650;49.848;9.620;2023-04-09T02:32:11;100283.59;;;7.56;63.62
61742;BME280;47650;49.848;9.620;2023-04-09T02:34:37;100389.63;;;8.23;63.74
61742;BME280;47650;49.848;9.620;2023-04-09T02:37:03;100371.72;;;8.16;63.53
61742;BME280;47650;49.848;9.620;2023-04-09T02:39:31;100322.81;;;7.86;63.69
61742;BME280;47650;49.848;9.620;2023-04-09T02:42:05;100438.38;;;8.56;63.78
61742;BME280;47650;49.848;9.620;2023-04-09T02:44:36;100428.41;;;8.60;63.71
61742;BME280;47650;49.848;9.620;2023-04-09T02:47:01;100454.75;;;8.61;63.34
61742;BME280;47650;49.848;9.620;2023-04-09T02:49:27;100428.66;;;8.57;63.41
61742;BME280;47650;49.848;9.620;2023-04-09T02:51:53;100308.00;;;7.83;63.15
61742;BME280;47650;49.848;9.620;2023-04-09T02:54:18;100426.13;;;8.55;63.49
61742;BME280;47650;49.848;9.620;2023-04-09T02:56:43;100432.03;;;8.59;63.44
61742;BME280;47650;49.848;9.620;2023-04-09T02:59:10;100402.16;;;8.45;63.35
61742;BME280;47650;49.848;9.620;2023-04-09T03:01:35;100402.88;;;8.47;63.68
61742;BME280;47650;49.848;9.620;2023-04-09T03:04:08;100411.31;;;8.53;63.43
61742;BME280;47650;49.848;9.620;2023-04-09T03:06:33;100427.97;;;8.66;63.45
61742;BME280;47650;49.848;9.620;2023-04-09T03:09:00;100314.72;;;8.00;63.25
61742;BME280;47650;49.848;9.620;2023-04-09T03:11:31;100408.25;;;8.59;63.57
61742;BME280;47650;49.848;9.620;2023-04-09T03:13:57;100419.09;;;8.67;63.43
61742;BME280;47650;49.848;9.620;2023-04-09T03:16:25;100419.09;;;8.67;63.76
61742;BME280;47650;49.848;9.620;2023-04-09T03:18:51;100423.63;;;8.65;63.38
61742;BME280;47650;49.848;9.620;2023-04-09T03:21:17;100413.06;;;8.65;63.76
61742;BME280;47650;49.848;9.620;2023-04-09T03:23:43;100415.69;;;8.65;63.74
61742;BME280;47650;49.848;9.620;2023-04-09T03:26:08;100385.97;;;8.50;63.68
61742;BME280;47650;49.848;9.620;2023-04-09T03:28:33;100272.25;;;7.79;63.73
61742;BME280;47650;49.848;9.620;2023-04-09T03:31:02;100323.34;;;8.15;63.46
61742;BME280;47650;49.848;9.620;2023-04-09T03:33:27;100278.34;;;7.80;63.67
61742;BME280;47650;49.848;9.620;2023-04-09T03:35:54;100384.09;;;8.39;64.20
61742;BME280;47650;49.848;9.620;2023-04-09T03:38:21;100394.66;;;8.39;64.40
61742;BME280;47650;49.848;9.620;2023-04-09T03:40:48;100311.78;;;7.92;64.43
61742;BME280;47650;49.848;9.620;2023-04-09T03:43:13;100379.69;;;8.27;64.29
61742;BME280;47650;49.848;9.620;2023-04-09T03:45:42;100410.09;;;8.45;64.49
61742;BME280;47650;49.848;9.620;2023-04-09T03:48:13;100376.81;;;8.30;64.67
61742;BME280;47650;49.848;9.620;2023-04-09T03:50:40;100409.16;;;8.46;63.92
61742;BME280;47650;49.848;9.620;2023-04-09T03:53:07;100387.19;;;8.33;63.88
61742;BME280;47650;49.848;9.620;2023-04-09T03:55:34;100354.91;;;8.17;64.09
61742;BME280;47650;49.848;9.620;2023-04-09T03:57:59;100411.22;;;8.54;64.54
61742;BME280;47650;49.848;9.620;2023-04-09T04:00:25;100419.03;;;8.56;64.40
61742;BME280;47650;49.848;9.620;2023-04-09T04:02:51;100418.94;;;8.57;64.33
61742;BME280;47650;49.848;9.620;2023-04-09T04:05:16;100409.97;;;8.47;64.20
61742;BME280;47650;49.848;9.620;2023-04-09T04:07:42;100418.09;;;8.57;64.22
61742;BME280;47650;49.848;9.620;2023-04-09T04:10:09;100430.34;;;8.58;64.37
61742;BME280;47650;49.848;9.620;2023-04-09T04:12:35;100414.47;;;8.58;64.19
61742;BME280;47650;49.848;9.620;2023-04-09T04:15:01;100419.53;;;8.61;64.49
61742;BME280;47650;49.848;9.620;2023-04-09T04:17:26;100332.00;;;8.04;64.05
61742;BME280;47650;49.848;9.620;2023-04-09T04:19:51;100423.13;;;8.60;64.16
61742;BME280;47650;49.848;9.620;2023-04-09T04:22:19;100300.59;;;7.88;64.26
61742;BME280;47650;49.848;9.620;2023-04-09T04:24:45;100425.06;;;8.58;64.22
61742;BME280;47650;49.848;9.620;2023-04-09T04:29:39;100432.03;;;8.59;64.38
61742;BME280;47650;49.848;9.620;2023-04-09T04:32:05;100348.16;;;8.13;64.64
61742;BME280;47650;49.848;9.620;2023-04-09T04:34:32;100309.50;;;7.87;64.69
61742;BME280;47650;49.848;9.620;2023-04-09T04:36:59;100418.53;;;8.51;64.35
61742;BME280;47650;49.848;9.620;2023-04-09T04:39:29;100411.34;;;8.40;64.10
61742;BME280;47650;49.848;9.620;2023-04-09T04:41:56;100404.09;;;8.43;64.59
61742;BME280;47650;49.848;9.620;2023-04-09T04:44:23;100433.59;;;8.61;64.64
61742;BME280;47650;49.848;9.620;2023-04-09T04:46:49;100437.00;;;8.63;64.74
61742;BME280;47650;49.848;9.620;2023-04-09T04:49:16;100433.25;;;8.66;64.50
61742;BME280;47650;49.848;9.620;2023-04-09T04:51:42;100433.03;;;8.69;64.68
61742;BME280;47650;49.848;9.620;2023-04-09T04:54:08;100382.41;;;8.38;64.53
61742;BME280;47650;49.848;9.620;2023-04-09T04:56:35;100434.50;;;8.73;64.43
61742;BME280;47650;49.848;9.620;2023-04-09T04:59:00;100447.72;;;8.73;64.28
61742;BME280;47650;49.848;9.620;2023-04-09T05:01:27;100430.03;;;8.74;63.83
61742;BME280;47650;49.848;9.620;2023-04-09T05:03:59;100364.22;;;8.34;63.99
61742;BME280;47650;49.848;9.620;2023-04-09T05:06:25;100375.72;;;8.45;64.19
61742;BME280;47650;49.848;9.620;2023-04-09T05:08:53;100423.91;;;8.73;64.31
61742;BME280;47650;49.848;9.620;2023-04-09T05:11:23;100405.78;;;8.69;64.24
61742;BME280;47650;49.848;9.620;2023-04-09T05:13:49;100419.47;;;8.74;64.38
61742;BME280;47650;49.848;9.620;2023-04-09T05:16:18;100432.91;;;8.95;64.17
61742;BME280;47650;49.848;9.620;2023-04-09T05:18:45;100429.91;;;8.99;63.71
61742;BME280;47650;49.848;9.620;2023-04-09T05:21:12;100436.69;;;9.03;63.23
61742;BME280;47650;49.848;9.620;2023-04-09T05:23:37;100400.19;;;8.84;63.38
61742;BME280;47650;49.848;9.620;2023-04-09T05:26:05;100433.22;;;9.14;63.57
61742;BME280;47650;49.848;9.620;2023-04-09T05:28:36;100340.47;;;8.58;63.33
61742;BME280;47650;49.848;9.620;2023-04-09T05:31:06;100401.78;;;8.98;62.94
61742;BME280;47650;49.848;9.620;2023-04-09T05:33:37;100442.88;;;9.27;63.16
61742;BME280;47650;49.848;9.620;2023-04-09T05:36:04;100440.34;;;9.25;62.97
61742;BME280;47650;49.848;9.620;2023-04-09T05:38:30;100397.72;;;9.06;62.92
61742;BME280;47650;49.848;9.620;2023-04-09T05:40:56;100430.34;;;9.29;62.64
61742;BME280;47650;49.848;9.620;2023-04-09T05:43:21;100420.72;;;9.16;62.68
61742;BME280;47650;49.848;9.620;2023-04-09T05:45:48;100210.69;;;8.14;62.63
61742;BME280;47650;49.848;9.620;2023-04-09T05:48:14;100433.31;;;9.59;62.42
61742;BME280;47650;49.848;9.620;2023-04-09T05:50:51;100371.78;;;9.33;61.76
61742;BME280;47650;49.848;9.620;2023-04-09T05:53:19;100436.94;;;9.81;61.07
61742;BME280;47650;49.848;9.620;2023-04-09T05:55:46;100410.09;;;9.74;60.94
61742;BME280;47650;49.848;9.620;2023-04-09T05:58:14;100440.91;;;10.09;60.91
61742;BME280;47650;49.848;9.620;2023-04-09T06:00:46;100441.84;;;10.20;60.56
61742;BME280;47650;49.848;9.620;2023-04-09T06:03:15;100374.44;;;9.90;60.37
61742;BME280;47650;49.848;9.620;2023-04-09T06:05:47;100407.00;;;10.24;59.85
61742;BME280;47650;49.848;9.620;2023-04-09T06:08:14;100436.38;;;10.55;59.73
61742;BME280;47650;49.848;9.620;2023-04-09T06:10:40;100378.50;;;10.16;59.48
61742;BME280;47650;49.848;9.620;2023-04-09T06:13:06;100449.38;;;10.69;59.35
61742;BME280;47650;49.848;9.620;2023-04-09T06:15:31;100381.34;;;10.47;58.82
61742;BME280;47650;49.848;9.620;2023-04-09T06:17:56;100291.41;;;10.12;58.40
61742;BME280;47650;49.848;9.620;2023-04-09T06:20:24;100456.25;;;11.25;57.86
61742;BME280;47650;49.848;9.620;2023-04-09T06:22:49;100408.38;;;11.16;56.68
61742;BME280;47650;49.848;9.620;2023-04-09T06:25:16;100359.25;;;11.00;55.70
61742;BME280;47650;49.848;9.620;2023-04-09T06:27:43;100383.38;;;11.39;55.50
61742;BME280;47650;49.848;9.620;2023-04-09T06:30:09;100393.03;;;11.71;54.77
61742;BME280;47650;49.848;9.620;2023-04-09T06:32:34;100447.94;;;12.22;54.43
61742;BME280;47650;49.848;9.620;2023-04-09T06:35:01;100454.41;;;11.47;57.21
61742;BME280;47650;49.848;9.620;2023-04-09T06:37:28;100350.78;;;11.06;57.18
61742;BME280;47650;49.848;9.620;2023-04-09T06:39:55;100461.44;;;10.95;59.29
61742;BME280;47650;49.848;9.620;2023-04-09T06:42:21;100460.97;;;11.43;58.90
61742;BME280;47650;49.848;9.620;2023-04-09T06:44:46;100456.97;;;11.79;57.16
61742;BME280;47650;49.848;9.620;2023-04-09T06:47:19;100453.50;;;11.89;57.23
61742;BME280;47650;49.848;9.620;2023-04-09T06:49:45;100448.16;;;12.00;56.62
61742;BME280;47650;49.848;9.620;2023-04-09T06:52:11;100442.53;;;11.93;56.41
61742;BME280;47650;49.848;9.620;2023-04-09T06:54:37;100463.88;;;10.86;60.54
61742;BME280;47650;49.848;9.620;2023-04-09T06:57:02;100427.28;;;11.01;59.29
61742;BME280;47650;49.848;9.620;2023-04-09T06:59:30;100460.25;;;11.20;60.02
61742;BME280;47650;49.848;9.620;2023-04-09T07:01:58;100450.22;;;11.44;58.62
61742;BME280;47650;49.848;9.620;2023-04-09T07:04:23;100403.06;;;11.58;57.13
61742;BME280;47650;49.848;9.620;2023-04-09T07:06:51;100450.06;;;11.67;57.11
61742;BME280;47650;49.848;9.620;2023-04-09T07:09:19;100451.31;;;12.25;54.73
61742;BME280;47650;49.848;9.620;2023-04-09T07:11:45;100455.75;;;12.84;53.10
61742;BME280;47650;49.848;9.620;2023-04-09T07:14:12;100456.59;;;13.33;51.73
61742;BME280;47650;49.848;9.620;2023-04-09T07:16:38;100361.56;;;13.24;49.95
61742;BME280;47650;49.848;9.620;2023-04-09T07:19:06;100426.94;;;14.03;49.59
61742;BME280;47650;49.848;9.620;2023-04-09T07:21:31;100432.13;;;13.67;49.55
61742;BME280;47650;49.848;9.620;2023-04-09T07:23:57;100440.97;;;14.61;46.97
61742;BME280;47650;49.848;9.620;2023-04-09T07:26:24;100421.66;;;14.85;46.87
61742;BME280;47650;49.848;9.620;2023-04-09T07:28:55;100465.84;;;15.41;45.08
61742;BME280;47650;49.848;9.620;2023-04-09T07:31:23;100349.09;;;15.08;43.71
61742;BME280;47650;49.848;9.620;2023-04-09T07:33:48;100455.28;;;15.58;44.00
61742;BME280;47650;49.848;9.620;2023-04-09T07:36:14;100455.91;;;15.52;42.94
61742;BME280;47650;49.848;9.620;2023-04-09T07:38:40;100458.78;;;15.76;42.56
61742;BME280;47650;49.848;9.620;2023-04-09T07:41:06;100350.50;;;15.20;42.58
61742;BME280;47650;49.848;9.620;2023-04-09T07:43:32;100384.09;;;15.57;42.32
61742;BME280;47650;49.848;9.620;2023-04-09T07:45:57;100456.19;;;16.35;41.48
61742;BME280;47650;49.848;9.620;2023-04-09T07:48:23;100431.69;;;16.14;40.73
61742;BME280;47650;49.848;9.620;2023-04-09T07:50:48;100383.28;;;15.56;41.09
61742;BME280;47650;49.848;9.620;2023-04-09T07:53:15;100456.31;;;16.77;40.59
61742;BME280;47650;49.848;9.620;2023-04-09T07:55:42;100416.72;;;16.38;41.12
61742;BME280;47650;49.848;9.620;2023-04-09T07:58:11;100453.06;;;16.57;40.75
61742;BME280;47650;49.848;9.620;2023-04-09T08:00:36;100455.75;;;16.14;41.53
61742;BME280;47650;49.848;9.620;2023-04-09T08:03:04;100452.94;;;16.74;39.58
61742;BME280;47650;49.848;9.620;2023-04-09T08:05:29;100457.63;;;16.81;39.83
61742;BME280;47650;49.848;9.620;2023-04-09T08:07:56;100453.84;;;17.08;39.58
61742;BME280;47650;49.848;9.620;2023-04-09T08:10:21;100407.28;;;16.17;39.62
61742;BME280;47650;49.848;9.620;2023-04-09T08:12:47;100363.03;;;16.39;40.32
61742;BME280;47650;49.848;9.620;2023-04-09T08:15:13;100453.53;;;16.35;40.68
61742;BME280;47650;49.848;9.620;2023-04-09T08:17:39;100462.09;;;16.05;40.81
61742;BME280;47650;49.848;9.620;2023-04-09T08:20:05;100458.97;;;16.68;40.36
61742;BME280;47650;49.848;9.620;2023-04-09T08:22:31;100456.31;;;16.85;40.59
61742;BME280;47650;49.848;9.620;2023-04-09T08:24:57;100459.03;;;17.01;39.10
61742;BME280;47650;49.848;9.620;2023-04-09T08:27:24;100379.78;;;16.49;39.40
61742;BME280;47650;49.848;9.620;2023-04-09T08:29:49;100284.78;;;15.70;39.32
61742;BME280;47650;49.848;9.620;2023-04-09T08:32:16;100457.53;;;16.90;39.26
61742;BME280;47650;49.848;9.620;2023-04-09T08:34:44;100429.38;;;16.86;38.85
61742;BME280;47650;49.848;9.620;2023-04-09T08:37:10;100395.38;;;16.70;38.40
61742;BME280;47650;49.848;9.620;2023-04-09T08:39:35;100349.19;;;16.44;38.72
61742;BME280;47650;49.848;9.620;2023-04-09T08:44:30;100466.41;;;17.32;38.59
61742;BME280;47650;49.848;9.620;2023-04-09T08:46:56;100436.22;;;17.46;37.59
61742;BME280;47650;49.848;9.620;2023-04-09T08:49:24;100459.38;;;19.06;35.17
61742;BME280;47650;49.848;9.620;2023-04-09T08:51:49;100410.28;;;20.31;32.29
61742;BME280;47650;49.848;9.620;2023-04-09T08:54:16;100455.81;;;20.77;32.27
61742;BME280;47650;49.848;9.620;2023-04-09T08:56:45;100390.03;;;21.85;31.12
61742;BME280;47650;49.848;9.620;2023-04-09T08:59:10;100437.81;;;23.81;28.07
61742;BME280;47650;49.848;9.620;2023-04-09T09:01:40;100444.44;;;23.78;27.55
61742;BME280;47650;49.848;9.620;2023-04-09T09:04:08;100442.09;;;22.55;28.22
61742;BME280;47650;49.848;9.620;2023-04-09T09:06:35;100458.66;;;20.91;30.52
61742;BME280;47650;49.848;9.620;2023-04-09T09:09:07;100448.59;;;22.74;29.07
61742;BME280;47650;49.848;9.620;2023-04-09T09:11:47;100415.13;;;23.42;27.13
61742;BME280;47650;49.848;9.620;2023-04-09T09:14:19;100427.53;;;24.87;25.73
61742;BME280;47650;49.848;9.620;2023-04-09T09:19:28;100437.28;;;24.11;26.70
61742;BME280;47650;49.848;9.620;2023-04-09T09:22:13;100414.81;;;24.49;25.54
61742;BME280;47650;49.848;9.620;2023-04-09T09:25:08;100419.22;;;26.31;22.79
61742;BME280;47650;49.848;9.620;2023-04-09T09:27:55;100387.78;;;24.29;25.02
61742;BME280;47650;49.848;9.620;2023-04-09T09:30:50;100423.50;;;21.55;27.73
61742;BME280;47650;49.848;9.620;2023-04-09T09:33:37;100441.97;;;20.29;29.88
61742;BME280;47650;49.848;9.620;2023-04-09T09:36:18;100448.22;;;18.63;33.23
61742;BME280;47650;49.848;9.620;2023-04-09T09:39:16;100420.06;;;24.37;26.12
61742;BME280;47650;49.848;9.620;2023-04-09T09:41:45;100407.28;;;27.05;22.18
61742;BME280;47650;49.848;9.620;2023-04-09T09:44:12;100341.13;;;26.80;20.63
61742;BME280;47650;49.848;9.620;2023-04-09T09:47:15;100419.66;;;25.54;23.31
61742;BME280;47650;49.848;9.620;2023-04-09T09:49:50;100409.19;;;25.58;22.98
61742;BME280;47650;49.848;9.620;2023-04-09T09:52:24;100363.72;;;22.55;25.33
61742;BME280;47650;49.848;9.620;2023-04-09T09:54:52;100415.47;;;25.08;23.48
61742;BME280;47650;49.848;9.620;2023-04-09T09:57:23;100342.66;;;27.24;20.45
61742;BME280;47650;49.848;9.620;2023-04-09T09:59:53;100359.81;;;29.42;18.89
61742;BME280;47650;49.848;9.620;2023-04-09T10:02:26;100419.03;;;27.52;21.05
61742;BME280;47650;49.848;9.620;2023-04-09T10:04:55;100391.06;;;27.69;19.56
61742;BME280;47650;49.848;9.620;2023-04-09T10:07:24;100383.75;;;26.07;21.80
61742;BME280;47650;49.848;9.620;2023-04-09T10:09:52;100408.88;;;26.70;21.09
61742;BME280;47650;49.848;9.620;2023-04-09T10:12:20;100377.28;;;27.99;20.20
61742;BME280;47650;49.848;9.620;2023-04-09T10:14:50;100403.94;;;29.34;18.90
61742;BME280;47650;49.848;9.620;2023-04-09T10:17:17;100382.41;;;27.72;19.98
61742;BME280;47650;49.848;9.620;2023-04-09T10:19:58;100384.06;;;29.39;18.03
61742;BME280;47650;49.848;9.620;2023-04-09T10:22:28;100386.28;;;30.03;17.50
61742;BME280;47650;49.848;9.620;2023-04-09T10:24:56;100395.53;;;27.75;19.89
61742;BME280;47650;49.848;9.620;2023-04-09T10:27:24;100392.13;;;27.20;21.12
61742;BME280;47650;49.848;9.620;2023-04-09T10:29:54;100395.47;;;27.34;21.53
61742;BME280;47650;49.848;9.620;2023-04-09T10:32:20;100382.22;;;30.55;17.16
61742;BME280;47650;49.848;9.620;2023-04-09T10:34:48;100384.75;;;29.68;18.30
61742;BME280;47650;49.848;9.620;2023-04-09T10:37:21;100392.63;;;28.17;19.59
61742;BME280;47650;49.848;9.620;2023-04-09T10:39:47;100392.31;;;27.90;19.64
61742;BME280;47650;49.848;9.620;2023-04-09T10:42:17;100383.25;;;30.49;17.27
61742;BME280;47650;49.848;9.620;2023-04-09T10:44:45;100365.47;;;32.22;15.76
61742;BME280;47650;49.848;9.620;2023-04-09T10:47:10;100295.22;;;32.16;15.07
61742;BME280;47650;49.848;9.620;2023-04-09T10:49:41;100320.72;;;32.21;14.63
61742;BME280;47650;49.848;9.620;2023-04-09T10:59:42;100331.72;;;37.17;11.01
61742;BME280;47650;49.848;9.620;2023-04-09T11:05:10;100343.03;;;35.98;11.18
61742;BME280;47650;49.848;9.620;2023-04-09T11:07:46;100343.09;;;34.22;11.99
61742;BME280;47650;49.848;9.620;2023-04-09T11:10:14;100345.69;;;33.38;13.29
61742;BME280;47650;49.848;9.620;2023-04-09T11:12:41;100280.00;;;33.91;13.26
61742;BME280;47650;49.848;9.620;2023-04-09T11:15:17;100267.22;;;32.75;13.43
61742;BME280;47650;49.848;9.620;2023-04-09T11:17:44;100290.66;;;28.18;15.69
61742;BME280;47650;49.848;9.620;2023-04-09T11:20:12;100336.88;;;32.08;13.63
61742;BME280;47650;49.848;9.620;2023-04-09T11:22:39;100348.38;;;30.99;14.35
61742;BME280;47650;49.848;9.620;2023-04-09T11:25:05;100341.84;;;33.24;12.82
61742;BME280;47650;49.848;9.620;2023-04-09T11:27:43;100283.91;;;33.85;12.54
61742;BME280;47650;49.848;9.620;2023-04-09T11:30:09;100268.84;;;35.53;10.90
61742;BME280;47650;49.848;9.620;2023-04-09T11:32:34;100324.50;;;35.80;11.31
61742;BME280;47650;49.848;9.620;2023-04-09T11:34:59;100310.31;;;37.65;10.55
61742;BME280;47650;49.848;9.620;2023-04-09T11:37:25;100323.38;;;37.03;10.74
61742;BME280;47650;49.848;9.620;2023-04-09T11:39:52;100319.34;;;33.16;13.12
61742;BME280;47650;49.848;9.620;2023-04-09T11:42:20;100327.50;;;35.59;10.98
61742;BME280;47650;49.848;9.620;2023-04-09T11:44:51;100253.22;;;30.79;13.36
61742;BME280;47650;49.848;9.620;2023-04-09T11:47:16;100350.19;;;34.73;12.02
61742;BME280;47650;49.848;9.620;2023-04-09T11:49:44;100340.84;;;33.85;12.65
61742;BME280;47650;49.848;9.620;2023-04-09T11:52:12;100333.88;;;33.98;11.31
61742;BME280;47650;49.848;9.620;2023-04-09T11:54:37;100308.56;;;29.11;14.62
61742;BME280;47650;49.848;9.620;2023-04-09T11:57:05;100360.91;;;27.35;16.63
61742;BME280;47650;49.848;9.620;2023-04-09T11:59:37;100307.81;;;23.09;19.97
61742;BME280;47650;49.848;9.620;2023-04-09T12:02:04;100353.88;;;24.19;19.48
61742;BME280;47650;49.848;9.620;2023-04-09T12:04:30;100342.38;;;23.86;21.42
61742;BME280;47650;49.848;9.620;2023-04-09T12:06:56;100294.38;;;23.47;21.02
61742;BME280;47650;49.848;9.620;2023-04-09T12:09:23;100368.31;;;23.48;21.85
61742;BME280;47650;49.848;9.620;2023-04-09T12:11:49;100339.25;;;23.82;21.46
61742;BME280;47650;49.848;9.620;2023-04-09T12:14:16;100368.50;;;21.50;22.09
61742;BME280;47650;49.848;9.620;2023-04-09T12:16:43;100288.63;;;23.24;21.31
61742;BME280;47650;49.848;9.620;2023-04-09T12:19:12;100354.66;;;24.27;21.71
61742;BME280;47650;49.848;9.620;2023-04-09T12:24:18;100353.53;;;25.23;19.33
61742;BME280;47650;49.848;9.620;2023-04-09T12:26:45;100343.75;;;26.57;18.56
61742;BME280;47650;49.848;9.620;2023-04-09T12:29:13;100344.72;;;28.67;16.57
61742;BME280;47650;49.848;9.620;2023-04-09T12:31:41;100284.94;;;27.74;16.85
61742;BME280;47650;49.848;9.620;2023-04-09T12:34:07;100322.88;;;27.16;17.21
61742;BME280;47650;49.848;9.620;2023-04-09T12:36:33;100326.38;;;28.33;15.86
61742;BME280;47650;49.848;9.620;2023-04-09T12:38:58;100318.75;;;26.78;16.80
61742;BME280;47650;49.848;9.620;2023-04-09T12:41:24;100332.28;;;26.55;17.06
61742;BME280;47650;49.848;9.620;2023-04-09T12:43:50;100332.28;;;24.06;20.19
61742;BME280;47650;49.848;9.620;2023-04-09T12:46:19;100326.09;;;25.13;19.26
61742;BME280;47650;49.848;9.620;2023-04-09T12:48:46;100334.91;;;24.19;19.62
61742;BME280;47650;49.848;9.620;2023-04-09T12:51:12;100337.47;;;23.42;19.80
61742;BME280;47650;49.848;9.620;2023-04-09T12:53:38;100329.41;;;23.94;20.64
61742;BME280;47650;49.848;9.620;2023-04-09T12:56:04;100309.78;;;24.37;20.90
61742;BME280;47650;49.848;9.620;2023-04-09T12:58:34;100273.25;;;23.76;21.01
61742;BME280;47650;49.848;9.620;2023-04-09T13:00:59;100295.53;;;24.55;21.31
61742;BME280;47650;49.848;9.620;2023-04-09T13:03:25;100295.06;;;25.64;19.36
61742;BME280;47650;49.848;9.620;2023-04-09T13:05:52;100298.09;;;26.05;18.82
61742;BME280;47650;49.848;9.620;2023-04-09T13:08:17;100297.19;;;29.58;15.73
61742;BME280;47650;49.848;9.620;2023-04-09T13:10:43;100287.28;;;29.13;16.35
61742;BME280;47650;49.848;9.620;2023-04-09T13:13:09;100273.69;;;31.72;14.60
61742;BME280;47650;49.848;9.620;2023-04-09T13:15:38;100296.94;;;27.90;16.15
61742;BME280;47650;49.848;9.620;2023-04-09T13:18:03;100288.50;;;28.03;16.16
61742;BME280;47650;49.848;9.620;2023-04-09T13:20:29;100275.91;;;27.09;17.60
61742;BME280;47650;49.848;9.620;2023-04-09T13:22:56;100298.53;;;24.91;19.24
61742;BME280;47650;49.848;9.620;2023-04-09T13:25:22;100221.19;;;24.88;18.55
61742;BME280;47650;49.848;9.620;2023-04-09T13:27:47;100240.63;;;24.53;20.04
61742;BME280;47650;49.848;9.620;2023-04-09T13:30:21;100295.91;;;24.52;19.92